sensor_id;sensor_type;location;lat;lon;timestamp;temperature;humidity
13052;DHT22;6592;47.484;9.726;2024-01-16T00:02:19;1.50;99.90
13052;DHT22;6592;47.484;9.726;2024-01-16T00:04:48;1.50;99.90
13052;DHT22;6592;47.484;9.726;2024-01-16T00:07:16;1.50;99.90
13052;DHT22;6592;47.484;9.726;2024-01-16T00:09:45;1.50;99.90
13052;DHT22;6592;47.484;9.726;2024-01-16T00:12:14;1.50;99.90
13052;DHT22;6592;47.484;9.726;2024-01-16T00:14:42;1.40;99.90
13052;DHT22;6592;47.484;9.726;2024-01-16T00:17:10;1.40;99.90
13052;DHT22;6592;47.484;9.726;2024-01-16T00:19:40;1.60;99.90
13052;DHT22;6592;47.484;9.726;2024-01-16T00:22:08;1.40;99.90
13052;DHT22;6592;47.484;9.726;2024-01-16T00:24:36;1.60;99.90
13052;DHT22;6592;47.484;9.726;2024-01-16T00:27:06;1.50;99.90
13052;DHT22;6592;47.484;9.726;2024-01-16T00:29:38;1.60;99.90
13052;DHT22;6592;47.484;9.726;2024-01-16T00:32:06;1.70;99.90
13052;DHT22;6592;47.484;9.726;2024-01-16T00:34:35;1.50;99.90
13052;DHT22;6592;47.484;9.726;2024-01-16T00:37:03;1.50;99.90
13052;DHT22;6592;47.484;9.726;2024-01-16T00:39:32;1.70;99.90
13052;DHT22;6592;47.484;9.726;2024-01-16T00:42:01;1.60;99.90
13052;DHT22;6592;47.484;9.726;2024-01-16T00:44:31;1.60;99.90
13052;DHT22;6592;47.484;9.726;2024-01-16T00:46:59;1.60;99.90
13052;DHT22;6592;47.484;9.726;2024-01-16T00:49:29;1.60;99.90
13052;DHT22;6592;47.484;9.726;2024-01-16T00:51:57;1.60;99.90
13052;DHT22;6592;47.484;9.726;2024-01-16T00:54:25;1.60;99.90
13052;DHT22;6592;47.484;9.726;2024-01-16T00:56:54;1.70;99.90
13052;DHT22;6592;47.484;9.726;2024-01-16T00:59:26;1.50;99.90
13052;DHT22;6592;47.484;9.726;2024-01-16T01:01:56;1.60;99.90
13052;DHT22;6592;47.484;9.726;2024-01-16T01:04:25;1.50;99.90
13052;DHT22;6592;47.484;9.726;2024-01-16T01:06:53;1.70;99.90
13052;DHT22;6592;47.484;9.726;2024-01-16T01:09:21;1.50;99.90
13052;DHT22;6592;47.484;9.726;2024-01-16T01:11:49;1.50;99.90
13052;DHT22;6592;47.484;9.726;2024-01-16T01:14:18;1.40;99.90
13052;DHT22;6592;47.484;9.726;2024-01-16T01:16:46;1.50;99.90
13052;DHT22;6592;47.484;9.726;2024-01-16T01:19:16;1.40;99.90
13052;DHT22;6592;47.484;9.726;2024-01-16T01:21:44;1.40;99.90
13052;DHT22;6592;47.484;9.726;2024-01-16T01:24:12;1.60;99.90
13052;DHT22;6592;47.484;9.726;2024-01-16T01:26:42;1.50;99.90
13052;DHT22;6592;47.484;9.726;2024-01-16T01:29:11;1.40;99.90
13052;DHT22;6592;47.484;9.726;2024-01-16T01:31:39;1.50;99.90
13052;DHT22;6592;47.484;9.726;2024-01-16T01:34:07;1.50;99.90
13052;DHT22;6592;47.484;9.726;2024-01-16T01:36:37;1.50;99.90
13052;DHT22;6592;47.484;9.726;2024-01-16T01:39:05;1.50;99.90
13052;DHT22;6592;47.484;9.726;2024-01-16T01:41:34;1.30;99.90
13052;DHT22;6592;47.484;9.726;2024-01-16T01:44:02;1.40;99.90
13052;DHT22;6592;47.484;9.726;2024-01-16T01:46:32;1.40;99.90
13052;DHT22;6592;47.484;9.726;2024-01-16T01:49:01;1.60;99.90
13052;DHT22;6592;47.484;9.726;2024-01-16T01:51:30;1.50;99.90
13052;DHT22;6592;47.484;9.726;2024-01-16T01:54:01;1.40;99.90
13052;DHT22;6592;47.484;9.726;2024-01-16T01:56:29;1.40;99.90
13052;DHT22;6592;47.484;9.726;2024-01-16T01:58:58;1.50;99.90
13052;DHT22;6592;47.484;9.726;2024-01-16T02:01:27;1.40;99.90
13052;DHT22;6592;47.484;9.726;2024-01-16T02:03:58;1.40;99.90
13052;DHT22;6592;47.484;9.726;2024-01-16T02:06:27;1.40;99.90
13052;DHT22;6592;47.484;9.726;2024-01-16T02:08:55;1.30;99.90
13052;DHT22;6592;47.484;9.726;2024-01-16T02:11:25;1.40;99.90
13052;DHT22;6592;47.484;9.726;2024-01-16T02:13:53;1.30;99.90
13052;DHT22;6592;47.484;9.726;2024-01-16T02:16:22;1.30;99.90
13052;DHT22;6592;47.484;9.726;2024-01-16T02:18:52;1.30;99.90
13052;DHT22;6592;47.484;9.726;2024-01-16T02:21:22;1.20;99.90
13052;DHT22;6592;47.484;9.726;2024-01-16T02:23:52;1.20;99.90
13052;DHT22;6592;47.484;9.726;2024-01-16T02:26:20;1.20;99.90
13052;DHT22;6592;47.484;9.726;2024-01-16T02:28:49;1.30;99.90
13052;DHT22;6592;47.484;9.726;2024-01-16T02:31:18;1.30;99.90
13052;DHT22;6592;47.484;9.726;2024-01-16T02:33:46;1.40;99.90
13052;DHT22;6592;47.484;9.726;2024-01-16T02:36:14;1.20;99.90
13052;DHT22;6592;47.484;9.726;2024-01-16T02:38:43;1.30;99.90
13052;DHT22;6592;47.484;9.726;2024-01-16T02:41:15;1.30;99.90
13052;DHT22;6592;47.484;9.726;2024-01-16T02:43:44;1.30;99.90
13052;DHT22;6592;47.484;9.726;2024-01-16T02:46:12;1.30;99.90
13052;DHT22;6592;47.484;9.726;2024-01-16T02:48:41;1.30;99.90
13052;DHT22;6592;47.484;9.726;2024-01-16T02:51:10;1.30;99.90
13052;DHT22;6592;47.484;9.726;2024-01-16T02:53:38;1.20;99.90
13052;DHT22;6592;47.484;9.726;2024-01-16T02:56:08;1.20;99.90
13052;DHT22;6592;47.484;9.726;2024-01-16T02:58:38;1.20;99.90
13052;DHT22;6592;47.484;9.726;2024-01-16T03:01:06;1.20;99.90
13052;DHT22;6592;47.484;9.726;2024-01-16T03:03:34;1.20;99.90
13052;DHT22;6592;47.484;9.726;2024-01-16T03:06:03;1.20;99.90
13052;DHT22;6592;47.484;9.726;2024-01-16T03:08:32;1.20;99.90
13052;DHT22;6592;47.484;9.726;2024-01-16T03:11:00;1.20;99.90
13052;DHT22;6592;47.484;9.726;2024-01-16T03:13:28;1.20;99.90
13052;DHT22;6592;47.484;9.726;2024-01-16T03:15:58;1.20;99.90
13052;DHT22;6592;47.484;9.726;2024-01-16T03:18:26;1.20;99.90
13052;DHT22;6592;47.484;9.726;2024-01-16T03:20:54;1.20;99.90
13052;DHT22;6592;47.484;9.726;2024-01-16T03:23:23;1.20;99.90
13052;DHT22;6592;47.484;9.726;2024-01-16T03:25:51;1.20;99.90
13052;DHT22;6592;47.484;9.726;2024-01-16T03:28:19;1.20;99.90
13052;DHT22;6592;47.484;9.726;2024-01-16T03:30:48;1.10;99.90
13052;DHT22;6592;47.484;9.726;2024-01-16T03:33:17;1.20;99.90
13052;DHT22;6592;47.484;9.726;2024-01-16T03:35:46;1.20;99.90
13052;DHT22;6592;47.484;9.726;2024-01-16T03:38:15;1.20;99.90
13052;DHT22;6592;47.484;9.726;2024-01-16T03:40:43;1.40;99.90
13052;DHT22;6592;47.484;9.726;2024-01-16T03:43:12;1.30;99.90
13052;DHT22;6592;47.484;9.726;2024-01-16T03:45:40;1.20;99.90
13052;DHT22;6592;47.484;9.726;2024-01-16T03:48:09;1.40;99.90
13052;DHT22;6592;47.484;9.726;2024-01-16T03:50:39;1.30;99.90
13052;DHT22;6592;47.484;9.726;2024-01-16T03:53:11;1.30;99.90
13052;DHT22;6592;47.484;9.726;2024-01-16T03:55:39;1.30;99.90
13052;DHT22;6592;47.484;9.726;2024-01-16T03:58:08;1.30;99.90
13052;DHT22;6592;47.484;9.726;2024-01-16T04:00:39;1.40;99.90
13052;DHT22;6592;47.484;9.726;2024-01-16T04:03:08;1.30;99.90
13052;DHT22;6592;47.484;9.726;2024-01-16T04:05:36;1.30;99.90
13052;DHT22;6592;47.484;9.726;2024-01-16T04:08:06;1.30;99.90
13052;DHT22;6592;47.484;9.726;2024-01-16T04:10:34;1.40;99.90
13052;DHT22;6592;47.484;9.726;2024-01-16T04:13:03;1.30;99.90
13052;DHT22;6592;47.484;9.726;2024-01-16T04:15:32;1.20;99.90
13052;DHT22;6592;47.484;9.726;2024-01-16T04:18:00;1.20;99.90
13052;DHT22;6592;47.484;9.726;2024-01-16T04:20:31;1.30;99.90
13052;DHT22;6592;47.484;9.726;2024-01-16T04:23:00;1.20;99.90
13052;DHT22;6592;47.484;9.726;2024-01-16T04:25:29;1.10;99.90
13052;DHT22;6592;47.484;9.726;2024-01-16T04:27:58;1.10;99.90
13052;DHT22;6592;47.484;9.726;2024-01-16T04:30:29;1.10;99.90
13052;DHT22;6592;47.484;9.726;2024-01-16T04:32:57;1.10;99.90
13052;DHT22;6592;47.484;9.726;2024-01-16T04:35:26;1.10;99.90
13052;DHT22;6592;47.484;9.726;2024-01-16T04:37:54;1.10;99.90
13052;DHT22;6592;47.484;9.726;2024-01-16T04:40:22;1.10;99.90
13052;DHT22;6592;47.484;9.726;2024-01-16T04:42:52;1.10;99.90
13052;DHT22;6592;47.484;9.726;2024-01-16T04:45:20;1.20;99.90
13052;DHT22;6592;47.484;9.726;2024-01-16T04:47:48;1.10;99.90
13052;DHT22;6592;47.484;9.726;2024-01-16T04:50:17;1.00;99.90
13052;DHT22;6592;47.484;9.726;2024-01-16T04:52:46;1.00;99.90
13052;DHT22;6592;47.484;9.726;2024-01-16T04:55:16;1.10;99.90
13052;DHT22;6592;47.484;9.726;2024-01-16T04:57:44;1.00;99.90
13052;DHT22;6592;47.484;9.726;2024-01-16T05:00:14;1.20;99.90
13052;DHT22;6592;47.484;9.726;2024-01-16T05:02:42;1.00;99.90
13052;DHT22;6592;47.484;9.726;2024-01-16T05:05:11;1.00;99.90
13052;DHT22;6592;47.484;9.726;2024-01-16T05:07:39;0.90;99.90
13052;DHT22;6592;47.484;9.726;2024-01-16T05:10:09;0.90;99.90
13052;DHT22;6592;47.484;9.726;2024-01-16T05:12:39;1.10;99.90
13052;DHT22;6592;47.484;9.726;2024-01-16T05:15:07;1.00;99.90
13052;DHT22;6592;47.484;9.726;2024-01-16T05:17:39;1.00;99.90
13052;DHT22;6592;47.484;9.726;2024-01-16T05:20:08;1.00;99.90
13052;DHT22;6592;47.484;9.726;2024-01-16T05:22:37;1.00;99.90
13052;DHT22;6592;47.484;9.726;2024-01-16T05:25:07;1.00;99.90
13052;DHT22;6592;47.484;9.726;2024-01-16T05:27:35;1.00;99.90
13052;DHT22;6592;47.484;9.726;2024-01-16T05:30:04;1.00;99.90
13052;DHT22;6592;47.484;9.726;2024-01-16T05:32:33;0.90;99.90
13052;DHT22;6592;47.484;9.726;2024-01-16T05:35:04;1.00;99.90
13052;DHT22;6592;47.484;9.726;2024-01-16T05:37:33;0.90;99.90
13052;DHT22;6592;47.484;9.726;2024-01-16T05:40:02;0.90;99.90
13052;DHT22;6592;47.484;9.726;2024-01-16T05:42:30;0.90;99.90
13052;DHT22;6592;47.484;9.726;2024-01-16T05:44:59;0.80;99.90
13052;DHT22;6592;47.484;9.726;2024-01-16T05:47:27;0.80;99.90
13052;DHT22;6592;47.484;9.726;2024-01-16T05:49:55;0.80;99.90
13052;DHT22;6592;47.484;9.726;2024-01-16T05:52:25;0.80;99.90
13052;DHT22;6592;47.484;9.726;2024-01-16T05:54:53;0.80;99.90
13052;DHT22;6592;47.484;9.726;2024-01-16T05:57:24;0.80;99.90
13052;DHT22;6592;47.484;9.726;2024-01-16T05:59:52;0.80;99.90
13052;DHT22;6592;47.484;9.726;2024-01-16T06:02:20;0.70;99.90
13052;DHT22;6592;47.484;9.726;2024-01-16T06:04:48;0.70;99.90
13052;DHT22;6592;47.484;9.726;2024-01-16T06:07:17;0.70;99.90
13052;DHT22;6592;47.484;9.726;2024-01-16T06:09:46;0.60;99.90
13052;DHT22;6592;47.484;9.726;2024-01-16T06:12:15;0.70;99.90
13052;DHT22;6592;47.484;9.726;2024-01-16T06:14:43;0.80;99.90
13052;DHT22;6592;47.484;9.726;2024-01-16T06:17:11;0.60;99.90
13052;DHT22;6592;47.484;9.726;2024-01-16T06:19:39;0.70;99.90
13052;DHT22;6592;47.484;9.726;2024-01-16T06:22:08;0.50;99.90
13052;DHT22;6592;47.484;9.726;2024-01-16T06:24:36;0.40;99.90
13052;DHT22;6592;47.484;9.726;2024-01-16T06:27:06;0.40;99.90
13052;DHT22;6592;47.484;9.726;2024-01-16T06:29:34;0.40;99.90
13052;DHT22;6592;47.484;9.726;2024-01-16T06:32:03;0.30;99.90
13052;DHT22;6592;47.484;9.726;2024-01-16T06:34:31;0.30;99.90
13052;DHT22;6592;47.484;9.726;2024-01-16T06:36:59;0.20;99.90
13052;DHT22;6592;47.484;9.726;2024-01-16T06:39:28;0.20;99.90
13052;DHT22;6592;47.484;9.726;2024-01-16T06:41:56;0.20;99.90
13052;DHT22;6592;47.484;9.726;2024-01-16T06:44:25;0.10;99.90
13052;DHT22;6592;47.484;9.726;2024-01-16T06:46:54;0.00;99.90
13052;DHT22;6592;47.484;9.726;2024-01-16T06:49:22;-0.10;99.90
13052;DHT22;6592;47.484;9.726;2024-01-16T06:51:50;-0.10;99.90
13052;DHT22;6592;47.484;9.726;2024-01-16T06:54:18;-0.30;99.90
13052;DHT22;6592;47.484;9.726;2024-01-16T06:56:48;-0.30;99.90
13052;DHT22;6592;47.484;9.726;2024-01-16T06:59:16;-0.40;99.90
13052;DHT22;6592;47.484;9.726;2024-01-16T07:01:48;-0.40;99.90
13052;DHT22;6592;47.484;9.726;2024-01-16T07:04:16;-0.50;99.90
13052;DHT22;6592;47.484;9.726;2024-01-16T07:06:44;-0.50;99.90
13052;DHT22;6592;47.484;9.726;2024-01-16T07:09:13;-0.50;99.90
13052;DHT22;6592;47.484;9.726;2024-01-16T07:11:43;-0.60;99.90
13052;DHT22;6592;47.484;9.726;2024-01-16T07:14:12;-0.60;99.90
13052;DHT22;6592;47.484;9.726;2024-01-16T07:16:40;-0.60;99.90
13052;DHT22;6592;47.484;9.726;2024-01-16T07:19:09;-0.60;99.90
13052;DHT22;6592;47.484;9.726;2024-01-16T07:21:39;-0.60;99.90
13052;DHT22;6592;47.484;9.726;2024-01-16T07:24:07;-0.60;99.90
13052;DHT22;6592;47.484;9.726;2024-01-16T07:26:35;-0.60;99.90
13052;DHT22;6592;47.484;9.726;2024-01-16T07:29:03;-0.60;99.90
13052;DHT22;6592;47.484;9.726;2024-01-16T07:31:32;-0.70;99.90
13052;DHT22;6592;47.484;9.726;2024-01-16T07:34:00;-0.70;99.90
13052;DHT22;6592;47.484;9.726;2024-01-16T07:36:30;-0.70;99.90
13052;DHT22;6592;47.484;9.726;2024-01-16T07:38:58;-0.70;99.90
13052;DHT22;6592;47.484;9.726;2024-01-16T07:41:27;-0.70;99.90
13052;DHT22;6592;47.484;9.726;2024-01-16T07:43:56;-0.60;99.90
13052;DHT22;6592;47.484;9.726;2024-01-16T07:46:24;-0.40;99.90
13052;DHT22;6592;47.484;9.726;2024-01-16T07:48:52;0.30;99.90
13052;DHT22;6592;47.484;9.726;2024-01-16T07:51:21;1.30;99.90
13052;DHT22;6592;47.484;9.726;2024-01-16T07:54:04;2.30;99.90
13052;DHT22;6592;47.484;9.726;2024-01-16T07:56:33;2.80;99.90
13052;DHT22;6592;47.484;9.726;2024-01-16T07:59:02;3.50;99.90
13052;DHT22;6592;47.484;9.726;2024-01-16T08:01:30;4.50;99.90
13052;DHT22;6592;47.484;9.726;2024-01-16T08:03:59;5.50;99.90
13052;DHT22;6592;47.484;9.726;2024-01-16T08:06:27;6.30;99.90
13052;DHT22;6592;47.484;9.726;2024-01-16T08:08:57;6.60;99.90
13052;DHT22;6592;47.484;9.726;2024-01-16T08:11:26;7.00;99.90
13052;DHT22;6592;47.484;9.726;2024-01-16T08:13:54;6.60;99.90
13052;DHT22;6592;47.484;9.726;2024-01-16T08:16:22;6.50;99.90
13052;DHT22;6592;47.484;9.726;2024-01-16T08:18:51;6.90;99.90
13052;DHT22;6592;47.484;9.726;2024-01-16T08:21:19;7.40;99.90
13052;DHT22;6592;47.484;9.726;2024-01-16T08:23:47;6.60;99.90
13052;DHT22;6592;47.484;9.726;2024-01-16T08:26:17;6.00;99.90
13052;DHT22;6592;47.484;9.726;2024-01-16T08:28:45;5.70;99.90
13052;DHT22;6592;47.484;9.726;2024-01-16T08:31:16;5.40;99.90
13052;DHT22;6592;47.484;9.726;2024-01-16T08:33:45;4.80;99.90
13052;DHT22;6592;47.484;9.726;2024-01-16T08:36:18;4.70;99.90
13052;DHT22;6592;47.484;9.726;2024-01-16T08:38:46;4.40;99.90
13052;DHT22;6592;47.484;9.726;2024-01-16T08:41:14;4.60;99.90
13052;DHT22;6592;47.484;9.726;2024-01-16T08:43:44;4.30;99.90
13052;DHT22;6592;47.484;9.726;2024-01-16T08:46:12;3.70;99.90
13052;DHT22;6592;47.484;9.726;2024-01-16T08:48:42;3.50;99.90
13052;DHT22;6592;47.484;9.726;2024-01-16T08:51:11;3.50;99.90
13052;DHT22;6592;47.484;9.726;2024-01-16T08:53:41;3.40;99.90
13052;DHT22;6592;47.484;9.726;2024-01-16T08:56:09;3.20;99.90
13052;DHT22;6592;47.484;9.726;2024-01-16T08:58:39;3.70;99.90
13052;DHT22;6592;47.484;9.726;2024-01-16T09:01:09;4.00;99.90
13052;DHT22;6592;47.484;9.726;2024-01-16T09:03:38;4.00;99.90
13052;DHT22;6592;47.484;9.726;2024-01-16T09:06:06;4.30;99.90
13052;DHT22;6592;47.484;9.726;2024-01-16T09:08:36;4.40;99.90
13052;DHT22;6592;47.484;9.726;2024-01-16T09:11:04;5.30;99.90
13052;DHT22;6592;47.484;9.726;2024-01-16T09:13:32;6.60;99.90
13052;DHT22;6592;47.484;9.726;2024-01-16T09:16:01;7.30;99.90
13052;DHT22;6592;47.484;9.726;2024-01-16T09:18:30;8.00;99.90
13052;DHT22;6592;47.484;9.726;2024-01-16T09:20:59;8.40;99.90
13052;DHT22;6592;47.484;9.726;2024-01-16T09:23:27;9.10;99.90
13052;DHT22;6592;47.484;9.726;2024-01-16T09:25:56;9.40;99.90
13052;DHT22;6592;47.484;9.726;2024-01-16T09:28:24;9.80;99.90
13052;DHT22;6592;47.484;9.726;2024-01-16T09:30:55;10.40;99.90
13052;DHT22;6592;47.484;9.726;2024-01-16T09:33:24;11.50;99.90
13052;DHT22;6592;47.484;9.726;2024-01-16T09:35:55;11.80;99.90
13052;DHT22;6592;47.484;9.726;2024-01-16T09:38:23;12.30;99.90
13052;DHT22;6592;47.484;9.726;2024-01-16T09:40:52;12.60;99.90
13052;DHT22;6592;47.484;9.726;2024-01-16T09:43:23;12.50;99.90
13052;DHT22;6592;47.484;9.726;2024-01-16T09:45:54;12.80;99.90
13052;DHT22;6592;47.484;9.726;2024-01-16T09:48:28;13.80;99.40
13052;DHT22;6592;47.484;9.726;2024-01-16T09:51:00;13.90;98.70
13052;DHT22;6592;47.484;9.726;2024-01-16T09:53:29;14.30;97.70
13052;DHT22;6592;47.484;9.726;2024-01-16T09:56:01;15.20;95.60
13052;DHT22;6592;47.484;9.726;2024-01-16T09:58:33;15.60;94.00
13052;DHT22;6592;47.484;9.726;2024-01-16T10:01:02;15.70;93.70
13052;DHT22;6592;47.484;9.726;2024-01-16T10:03:31;16.50;91.20
13052;DHT22;6592;47.484;9.726;2024-01-16T10:06:04;17.10;87.90
13052;DHT22;6592;47.484;9.726;2024-01-16T10:08:33;17.70;81.30
13052;DHT22;6592;47.484;9.726;2024-01-16T10:11:01;17.90;78.20
13052;DHT22;6592;47.484;9.726;2024-01-16T10:13:29;17.40;76.10
13052;DHT22;6592;47.484;9.726;2024-01-16T10:15:58;16.80;77.70
13052;DHT22;6592;47.484;9.726;2024-01-16T10:18:28;17.10;75.90
13052;DHT22;6592;47.484;9.726;2024-01-16T10:20:58;16.90;74.90
13052;DHT22;6592;47.484;9.726;2024-01-16T10:23:28;16.40;77.50
13052;DHT22;6592;47.484;9.726;2024-01-16T10:26:05;17.50;73.50
13052;DHT22;6592;47.484;9.726;2024-01-16T10:28:34;17.60;71.50
13052;DHT22;6592;47.484;9.726;2024-01-16T10:31:03;17.20;72.40
13052;DHT22;6592;47.484;9.726;2024-01-16T10:33:32;16.90;69.10
13052;DHT22;6592;47.484;9.726;2024-01-16T10:36:08;15.90;70.90
13052;DHT22;6592;47.484;9.726;2024-01-16T10:38:39;15.20;72.10
13052;DHT22;6592;47.484;9.726;2024-01-16T10:41:12;15.30;74.00
13052;DHT22;6592;47.484;9.726;2024-01-16T10:43:41;16.20;71.40
13052;DHT22;6592;47.484;9.726;2024-01-16T10:46:12;15.90;72.20
13052;DHT22;6592;47.484;9.726;2024-01-16T10:48:42;15.10;72.70
13052;DHT22;6592;47.484;9.726;2024-01-16T10:51:14;14.70;74.70
13052;DHT22;6592;47.484;9.726;2024-01-16T10:53:44;15.10;72.40
13052;DHT22;6592;47.484;9.726;2024-01-16T10:56:14;15.50;71.60
13052;DHT22;6592;47.484;9.726;2024-01-16T10:58:45;15.40;71.00
13052;DHT22;6592;47.484;9.726;2024-01-16T11:01:20;14.90;71.80
13052;DHT22;6592;47.484;9.726;2024-01-16T11:03:49;15.00;72.00
13052;DHT22;6592;47.484;9.726;2024-01-16T11:06:20;14.80;74.20
13052;DHT22;6592;47.484;9.726;2024-01-16T11:08:51;14.20;73.10
13052;DHT22;6592;47.484;9.726;2024-01-16T11:11:20;13.10;75.60
13052;DHT22;6592;47.484;9.726;2024-01-16T11:13:51;12.50;76.80
13052;DHT22;6592;47.484;9.726;2024-01-16T11:16:20;11.80;79.30
13052;DHT22;6592;47.484;9.726;2024-01-16T11:18:49;11.50;80.00
13052;DHT22;6592;47.484;9.726;2024-01-16T11:21:17;11.20;81.70
13052;DHT22;6592;47.484;9.726;2024-01-16T11:23:46;11.10;82.50
13052;DHT22;6592;47.484;9.726;2024-01-16T11:26:27;10.70;83.70
13052;DHT22;6592;47.484;9.726;2024-01-16T11:28:56;10.60;84.30
13052;DHT22;6592;47.484;9.726;2024-01-16T11:31:30;10.50;84.50
13052;DHT22;6592;47.484;9.726;2024-01-16T11:33:59;10.60;84.70
13052;DHT22;6592;47.484;9.726;2024-01-16T11:36:50;10.20;85.50
13052;DHT22;6592;47.484;9.726;2024-01-16T11:39:23;9.60;86.40
13052;DHT22;6592;47.484;9.726;2024-01-16T11:41:54;9.10;88.90
13052;DHT22;6592;47.484;9.726;2024-01-16T11:44:43;8.70;89.80
13052;DHT22;6592;47.484;9.726;2024-01-16T11:47:18;8.50;90.00
13052;DHT22;6592;47.484;9.726;2024-01-16T11:49:47;8.30;91.20
13052;DHT22;6592;47.484;9.726;2024-01-16T11:52:40;8.00;91.40
13052;DHT22;6592;47.484;9.726;2024-01-16T11:55:28;7.80;92.20
13052;DHT22;6592;47.484;9.726;2024-01-16T11:58:17;8.10;92.20
13052;DHT22;6592;47.484;9.726;2024-01-16T12:00:50;8.10;91.90
13052;DHT22;6592;47.484;9.726;2024-01-16T12:03:21;7.70;92.50
13052;DHT22;6592;47.484;9.726;2024-01-16T12:06:01;7.50;92.70
13052;DHT22;6592;47.484;9.726;2024-01-16T12:08:30;7.40;93.40
13052;DHT22;6592;47.484;9.726;2024-01-16T12:10:59;8.10;92.90
13052;DHT22;6592;47.484;9.726;2024-01-16T12:13:28;8.60;91.80
13052;DHT22;6592;47.484;9.726;2024-01-16T12:16:00;8.90;92.20
13052;DHT22;6592;47.484;9.726;2024-01-16T12:18:29;9.40;91.60
13052;DHT22;6592;47.484;9.726;2024-01-16T12:21:10;9.90;90.60
13052;DHT22;6592;47.484;9.726;2024-01-16T12:23:40;10.20;90.30
13052;DHT22;6592;47.484;9.726;2024-01-16T12:26:21;10.80;90.90
13052;DHT22;6592;47.484;9.726;2024-01-16T12:28:52;12.00;90.10
13052;DHT22;6592;47.484;9.726;2024-01-16T12:31:26;12.90;89.30
13052;DHT22;6592;47.484;9.726;2024-01-16T12:34:05;14.00;86.10
13052;DHT22;6592;47.484;9.726;2024-01-16T12:36:35;14.80;80.80
13052;DHT22;6592;47.484;9.726;2024-01-16T12:39:04;15.40;80.90
13052;DHT22;6592;47.484;9.726;2024-01-16T12:41:36;15.90;78.20
13052;DHT22;6592;47.484;9.726;2024-01-16T12:44:10;16.40;74.40
13052;DHT22;6592;47.484;9.726;2024-01-16T12:46:44;16.40;70.60
13052;DHT22;6592;47.484;9.726;2024-01-16T12:49:12;16.10;75.00
13052;DHT22;6592;47.484;9.726;2024-01-16T12:51:41;16.20;75.90
13052;DHT22;6592;47.484;9.726;2024-01-16T12:54:13;16.40;73.70
13052;DHT22;6592;47.484;9.726;2024-01-16T12:56:42;16.30;71.80
13052;DHT22;6592;47.484;9.726;2024-01-16T12:59:12;16.60;72.40
13052;DHT22;6592;47.484;9.726;2024-01-16T13:01:42;16.90;69.40
13052;DHT22;6592;47.484;9.726;2024-01-16T13:04:11;17.00;66.90
13052;DHT22;6592;47.484;9.726;2024-01-16T13:06:41;17.10;66.20
13052;DHT22;6592;47.484;9.726;2024-01-16T13:09:11;16.90;65.80
13052;DHT22;6592;47.484;9.726;2024-01-16T13:11:50;17.20;67.90
13052;DHT22;6592;47.484;9.726;2024-01-16T13:14:22;18.10;66.20
13052;DHT22;6592;47.484;9.726;2024-01-16T13:16:51;18.60;68.70
13052;DHT22;6592;47.484;9.726;2024-01-16T13:19:23;19.40;62.80
13052;DHT22;6592;47.484;9.726;2024-01-16T13:21:52;19.50;62.90
13052;DHT22;6592;47.484;9.726;2024-01-16T13:24:21;19.80;64.60
13052;DHT22;6592;47.484;9.726;2024-01-16T13:26:51;20.20;62.60
13052;DHT22;6592;47.484;9.726;2024-01-16T13:29:21;21.00;60.60
13052;DHT22;6592;47.484;9.726;2024-01-16T13:31:49;21.10;59.10
13052;DHT22;6592;47.484;9.726;2024-01-16T13:34:22;21.40;56.80
13052;DHT22;6592;47.484;9.726;2024-01-16T13:36:54;21.40;58.20
13052;DHT22;6592;47.484;9.726;2024-01-16T13:39:42;21.80;56.60
13052;DHT22;6592;47.484;9.726;2024-01-16T13:42:10;22.10;55.60
13052;DHT22;6592;47.484;9.726;2024-01-16T13:44:40;22.30;54.90
13052;DHT22;6592;47.484;9.726;2024-01-16T13:47:08;22.20;50.40
13052;DHT22;6592;47.484;9.726;2024-01-16T13:49:41;21.10;50.80
13052;DHT22;6592;47.484;9.726;2024-01-16T13:52:10;21.00;51.80
13052;DHT22;6592;47.484;9.726;2024-01-16T13:54:38;21.10;55.50
13052;DHT22;6592;47.484;9.726;2024-01-16T13:57:07;20.80;54.80
13052;DHT22;6592;47.484;9.726;2024-01-16T13:59:40;21.20;53.10
13052;DHT22;6592;47.484;9.726;2024-01-16T14:02:09;21.10;54.90
13052;DHT22;6592;47.484;9.726;2024-01-16T14:04:37;21.20;53.90
13052;DHT22;6592;47.484;9.726;2024-01-16T14:07:05;21.30;55.60
13052;DHT22;6592;47.484;9.726;2024-01-16T14:09:40;21.50;54.90
13052;DHT22;6592;47.484;9.726;2024-01-16T14:12:12;21.60;54.40
13052;DHT22;6592;47.484;9.726;2024-01-16T14:14:42;21.30;55.20
13052;DHT22;6592;47.484;9.726;2024-01-16T14:17:11;21.40;54.40
13052;DHT22;6592;47.484;9.726;2024-01-16T14:19:39;21.00;52.50
13052;DHT22;6592;47.484;9.726;2024-01-16T14:22:08;20.50;55.30
13052;DHT22;6592;47.484;9.726;2024-01-16T14:24:36;20.20;56.40
13052;DHT22;6592;47.484;9.726;2024-01-16T14:27:05;20.70;55.90
13052;DHT22;6592;47.484;9.726;2024-01-16T14:29:34;21.30;55.10
13052;DHT22;6592;47.484;9.726;2024-01-16T14:32:05;21.60;53.80
13052;DHT22;6592;47.484;9.726;2024-01-16T14:34:33;20.60;54.00
13052;DHT22;6592;47.484;9.726;2024-01-16T14:37:02;19.80;54.50
13052;DHT22;6592;47.484;9.726;2024-01-16T14:39:30;18.90;55.70
13052;DHT22;6592;47.484;9.726;2024-01-16T14:41:58;17.90;56.70
13052;DHT22;6592;47.484;9.726;2024-01-16T14:44:27;16.80;58.20
13052;DHT22;6592;47.484;9.726;2024-01-16T14:46:56;15.60;59.70
13052;DHT22;6592;47.484;9.726;2024-01-16T14:49:25;14.70;61.70
13052;DHT22;6592;47.484;9.726;2024-01-16T14:51:58;13.00;65.10
13052;DHT22;6592;47.484;9.726;2024-01-16T14:54:28;12.40;66.60
13052;DHT22;6592;47.484;9.726;2024-01-16T14:56:56;11.70;69.00
13052;DHT22;6592;47.484;9.726;2024-01-16T14:59:26;11.00;71.10
13052;DHT22;6592;47.484;9.726;2024-01-16T15:01:54;10.40;73.50
13052;DHT22;6592;47.484;9.726;2024-01-16T15:04:22;9.70;75.50
13052;DHT22;6592;47.484;9.726;2024-01-16T15:06:52;9.00;79.40
13052;DHT22;6592;47.484;9.726;2024-01-16T15:09:22;8.70;80.00
13052;DHT22;6592;47.484;9.726;2024-01-16T15:11:51;8.30;81.00
13052;DHT22;6592;47.484;9.726;2024-01-16T15:14:20;7.80;84.90
13052;DHT22;6592;47.484;9.726;2024-01-16T15:16:48;7.40;87.70
13052;DHT22;6592;47.484;9.726;2024-01-16T15:19:17;6.80;90.10
13052;DHT22;6592;47.484;9.726;2024-01-16T15:21:46;6.60;90.40
13052;DHT22;6592;47.484;9.726;2024-01-16T15:24:15;6.30;91.40
13052;DHT22;6592;47.484;9.726;2024-01-16T15:26:48;5.90;92.50
13052;DHT22;6592;47.484;9.726;2024-01-16T15:29:17;5.80;93.90
13052;DHT22;6592;47.484;9.726;2024-01-16T15:31:45;5.50;95.00
13052;DHT22;6592;47.484;9.726;2024-01-16T15:34:14;5.30;96.30
13052;DHT22;6592;47.484;9.726;2024-01-16T15:36:43;5.10;98.50
13052;DHT22;6592;47.484;9.726;2024-01-16T15:39:12;4.90;98.90
13052;DHT22;6592;47.484;9.726;2024-01-16T15:41:44;4.80;99.90
13052;DHT22;6592;47.484;9.726;2024-01-16T15:44:12;4.60;99.90
13052;DHT22;6592;47.484;9.726;2024-01-16T15:46:54;4.40;99.90
13052;DHT22;6592;47.484;9.726;2024-01-16T15:49:23;4.30;99.90
13052;DHT22;6592;47.484;9.726;2024-01-16T15:51:51;4.10;99.90
13052;DHT22;6592;47.484;9.726;2024-01-16T15:54:20;4.00;99.90
13052;DHT22;6592;47.484;9.726;2024-01-16T15:56:49;3.90;99.90
13052;DHT22;6592;47.484;9.726;2024-01-16T15:59:18;3.70;99.90
13052;DHT22;6592;47.484;9.726;2024-01-16T16:01:46;3.60;99.90
13052;DHT22;6592;47.484;9.726;2024-01-16T16:04:15;3.50;99.90
13052;DHT22;6592;47.484;9.726;2024-01-16T16:06:44;3.40;99.90
13052;DHT22;6592;47.484;9.726;2024-01-16T16:09:12;3.20;99.90
13052;DHT22;6592;47.484;9.726;2024-01-16T16:11:41;3.10;99.90
13052;DHT22;6592;47.484;9.726;2024-01-16T16:14:13;3.00;99.90